Time;durP1;ratioP1;P1;durP2;ratioP2;P2;SDS_P1;SDS_P2;PMS_P1;PMS_P2;Temp;Humidity;BMP_temperature;BMP_pressure;BME280_temperature;BME280_humidity;BME280_pressure;Samples;Min_cycle;Max_cycle;Signal;HPM_P1;HPM_P2
2022/08/25 00:01:09;;;;;;;;;;;22.70;89.50;;;-147.18;100.00;67318.16;5000422;28;19922;-81
2022/08/25 00:03:36;;;;;;;;;;;22.70;89.60;;;-147.18;100.00;67318.16;4992567;28;20005;-83
2022/08/25 00:06:04;;;;;;;;;;;22.70;89.60;;;-147.18;100.00;67318.16;4998464;28;20020;-83
2022/08/25 00:08:33;;;;;;;;;;;22.70;89.70;;;-147.18;100.00;67318.16;4992922;28;19921;-83
2022/08/25 00:11:01;;;;;;;;;;;22.70;90.00;;;-147.18;100.00;67318.16;5000278;28;19925;-82
2022/08/25 00:13:28;;;;;;;;;;;22.70;90.00;;;-147.18;100.00;67318.16;4999557;28;19928;-83
2022/08/25 00:15:56;;;;;;;;;;;22.60;90.10;;;-147.18;100.00;67318.16;4996400;28;20008;-83
2022/08/25 00:18:25;;;;;;;;;;;22.60;90.30;;;-147.18;100.00;67318.16;4989731;28;19926;-83
2022/08/25 00:20:52;;;;;;;;;;;22.60;90.40;;;-147.18;100.00;67318.16;4992791;28;19922;-83
2022/08/25 00:23:19;;;;;;;;;;;22.60;90.40;;;-147.18;100.00;67318.16;4991679;28;19928;-83
2022/08/25 00:25:46;;;;;;;;;;;22.60;90.50;;;-147.18;100.00;67318.16;5002814;28;20012;-83
2022/08/25 00:28:15;;;;;;;;;;;22.50;90.60;;;-147.18;100.00;67318.16;4997131;28;20440;-82
2022/08/25 00:30:43;;;;;;;;;;;22.50;90.50;;;-147.18;100.00;67318.16;4992153;28;19957;-84
2022/08/25 00:33:10;;;;;;;;;;;22.50;90.50;;;-147.18;100.00;67318.16;5020114;23;20039;-84
2022/08/25 00:35:40;;;;;;;;;;;22.50;90.40;;;-147.18;100.00;67318.16;4994772;28;19922;-84
2022/08/25 00:38:07;;;;;;;;;;;22.50;90.30;;;-147.18;100.00;67318.16;5006543;28;19928;-84
2022/08/25 00:40:35;;;;;;;;;;;22.40;90.10;;;-147.18;100.00;67318.16;5005312;28;20004;-84
2022/08/25 00:43:02;;;;;;;;;;;22.40;89.90;;;-147.18;100.00;67318.16;4998766;28;20021;-84
2022/08/25 00:45:30;;;;;;;;;;;22.40;90.10;;;-147.18;100.00;67318.16;4990442;28;19925;-84
2022/08/25 00:47:57;;;;;;;;;;;22.40;90.10;;;-147.18;100.00;67318.16;4989393;28;19922;-84
2022/08/25 00:50:25;;;;;;;;;;;22.40;90.40;;;-147.18;100.00;67318.16;4990976;28;19953;-84
2022/08/25 00:52:55;;;;;;;;;;;22.40;90.40;;;-147.18;100.00;67318.16;4990983;28;20371;-84
2022/08/25 00:55:26;;;;;;;;;;;22.30;90.40;;;-147.18;100.00;67318.16;4984776;28;20434;-84
2022/08/25 00:57:57;;;;;;;;;;;22.30;90.60;;;-147.18;100.00;67318.16;4989703;28;19953;-84
2022/08/25 01:00:27;;;;;;;;;;;22.30;90.60;;;-147.18;100.00;67318.16;4989793;28;19976;-84
2022/08/25 01:02:56;;;;;;;;;;;22.30;90.30;;;-147.18;100.00;67318.16;4990285;28;19921;-84
2022/08/25 01:05:23;;;;;;;;;;;22.30;90.40;;;-147.18;100.00;67318.16;4983222;28;19929;-84
2022/08/25 01:07:51;;;;;;;;;;;22.20;90.30;;;-147.18;100.00;67318.16;4986817;28;19936;-84
2022/08/25 01:10:21;;;;;;;;;;;22.30;90.70;;;-147.18;100.00;67318.16;4987590;28;20016;-84
2022/08/25 01:12:49;;;;;;;;;;;22.30;90.70;;;-147.18;100.00;67318.16;4987264;28;19953;-84
2022/08/25 01:15:16;;;;;;;;;;;22.20;90.70;;;-147.18;100.00;67318.16;4991124;28;20004;-84
2022/08/25 01:17:46;;;;;;;;;;;22.20;90.80;;;-147.18;100.00;67318.16;4991238;28;19921;-84
2022/08/25 01:20:14;;;;;;;;;;;22.10;90.60;;;-147.18;100.00;67318.16;4990342;28;19972;-84
2022/08/25 01:22:43;;;;;;;;;;;22.20;90.90;;;-147.18;100.00;67318.16;4991203;28;19926;-84
2022/08/25 01:25:24;;;;;;;;;;;22.10;90.80;;;-147.18;100.00;67318.16;4991505;28;19921;-84
2022/08/25 01:27:51;;;;;;;;;;;22.10;90.90;;;-147.18;100.00;67318.16;4981334;28;20404;-84
2022/08/25 01:30:18;;;;;;;;;;;22.10;90.90;;;-147.18;100.00;67318.16;4987625;28;19921;-84
2022/08/25 01:32:45;;;;;;;;;;;22.10;90.80;;;-147.18;100.00;67318.16;4989592;28;19938;-84
2022/08/25 01:35:13;;;;;;;;;;;22.00;90.60;;;-147.18;100.00;67318.16;4990936;28;19925;-84
2022/08/25 01:37:40;;;;;;;;;;;22.00;90.60;;;-147.18;100.00;67318.16;4989640;28;19928;-84
2022/08/25 01:40:09;;;;;;;;;;;22.00;90.70;;;-147.18;100.00;67318.16;4990716;28;20024;-84
2022/08/25 01:42:43;;;;;;;;;;;22.00;90.80;;;-147.18;100.00;67318.16;4990826;28;20367;-84
2022/08/25 01:45:10;;;;;;;;;;;22.00;90.80;;;-147.18;100.00;67318.16;4990181;28;20016;-84
2022/08/25 01:47:37;;;;;;;;;;;22.00;90.90;;;-147.18;100.00;67318.16;4989119;28;19933;-84
2022/08/25 01:50:06;;;;;;;;;;;21.90;91.10;;;-147.18;100.00;67318.16;4986179;28;19925;-84
2022/08/25 01:52:37;;;;;;;;;;;21.90;90.90;;;-147.18;100.00;67318.16;4991040;28;20416;-84
2022/08/25 01:55:05;;;;;;;;;;;21.90;90.90;;;-147.18;100.00;67318.16;4989554;28;19961;-84
2022/08/25 01:57:33;;;;;;;;;;;21.90;91.10;;;-147.18;100.00;67318.16;4990310;28;20374;-84
2022/08/25 02:00:00;;;;;;;;;;;21.90;91.10;;;-147.18;100.00;67318.16;4986328;28;19922;-84
2022/08/25 02:02:27;;;;;;;;;;;21.90;91.00;;;-147.18;100.00;67318.16;5004880;28;20412;-84
2022/08/25 02:04:54;;;;;;;;;;;21.90;91.10;;;-147.18;100.00;67318.16;4991001;28;19930;-84
2022/08/25 02:07:21;;;;;;;;;;;21.80;91.10;;;-147.18;100.00;67318.16;4989143;28;20465;-84
2022/08/25 02:09:48;;;;;;;;;;;21.80;91.30;;;-147.18;100.00;67318.16;4986969;28;19929;-84
2022/08/25 02:12:16;;;;;;;;;;;21.80;91.20;;;-147.18;100.00;67318.16;4987594;28;19922;-84
2022/08/25 02:14:44;;;;;;;;;;;21.80;91.20;;;-147.18;100.00;67318.16;4984016;28;19921;-84
2022/08/25 02:17:11;;;;;;;;;;;21.80;91.50;;;-147.18;100.00;67318.16;4989630;28;19929;-84
2022/08/25 02:19:38;;;;;;;;;;;21.70;91.70;;;-147.18;100.00;67318.16;4986932;28;19922;-84
2022/08/25 02:22:06;;;;;;;;;;;21.70;91.80;;;-147.18;100.00;67318.16;4989921;28;20461;-84
2022/08/25 02:24:33;;;;;;;;;;;21.70;91.60;;;-147.18;100.00;67318.16;4988968;28;19922;-84
2022/08/25 02:27:02;;;;;;;;;;;21.70;91.50;;;-147.18;100.00;67318.16;4989286;28;19961;-84
2022/08/25 02:29:29;;;;;;;;;;;21.70;91.80;;;-147.18;100.00;67318.16;4986880;28;19922;-84
2022/08/25 02:31:58;;;;;;;;;;;21.60;91.60;;;-147.18;100.00;67318.16;4990329;28;20575;-84
2022/08/25 02:34:26;;;;;;;;;;;21.60;91.20;;;-147.18;100.00;67318.16;4990297;28;19925;-84
2022/08/25 02:36:53;;;;;;;;;;;21.60;91.20;;;-147.18;100.00;67318.16;4986843;28;20031;-84
2022/08/25 02:39:20;;;;;;;;;;;21.60;90.90;;;-147.18;100.00;67318.16;4987284;28;19921;-84
2022/08/25 02:41:47;;;;;;;;;;;21.60;90.70;;;-147.18;100.00;67318.16;4986386;28;19965;-84
2022/08/25 02:44:14;;;;;;;;;;;21.60;90.50;;;-147.18;100.00;67318.16;4988847;28;20341;-84
2022/08/25 02:46:41;;;;;;;;;;;21.60;90.30;;;-147.18;100.00;67318.16;4989347;28;19929;-84
2022/08/25 02:49:10;;;;;;;;;;;21.60;90.00;;;-147.18;100.00;67318.16;4989106;28;20437;-84
2022/08/25 02:51:37;;;;;;;;;;;21.60;89.90;;;-147.18;100.00;67318.16;4990538;28;19926;-84
2022/08/25 02:54:05;;;;;;;;;;;21.60;89.80;;;-147.18;100.00;67318.16;4990395;28;20028;-84
2022/08/25 02:56:33;;;;;;;;;;;21.60;89.70;;;-147.18;100.00;67318.16;4988184;28;19937;-84
2022/08/25 02:59:01;;;;;;;;;;;21.60;89.50;;;-147.18;100.00;67318.16;4989902;28;19945;-84
2022/08/25 03:01:28;;;;;;;;;;;21.60;89.60;;;-147.18;100.00;67318.16;4990660;28;20386;-84
2022/08/25 03:03:56;;;;;;;;;;;21.50;89.70;;;-147.18;100.00;67318.16;4992406;28;20016;-84
2022/08/25 03:06:24;;;;;;;;;;;21.50;89.70;;;-147.18;100.00;67318.16;4985416;28;19922;-84
2022/08/25 03:08:52;;;;;;;;;;;21.60;89.60;;;-147.18;100.00;67318.16;4992785;28;19922;-84
2022/08/25 03:11:19;;;;;;;;;;;21.60;89.90;;;-147.18;100.00;67318.16;4991696;28;20017;-84
2022/08/25 03:13:49;;;;;;;;;;;21.50;90.00;;;-147.18;100.00;67318.16;4986892;28;20370;-84
2022/08/25 03:16:17;;;;;;;;;;;21.50;90.00;;;-147.18;100.00;67318.16;5007503;28;19922;-84
2022/08/25 03:18:44;;;;;;;;;;;21.50;89.90;;;-147.18;100.00;67318.16;4992177;28;20024;-84
2022/08/25 03:21:12;;;;;;;;;;;21.40;90.00;;;-147.18;100.00;67318.16;4991386;28;19921;-84
2022/08/25 03:23:41;;;;;;;;;;;21.40;90.10;;;-147.18;100.00;67318.16;4993689;28;19965;-84
2022/08/25 03:28:54;;;;;;;;;;;21.30;90.40;;;-147.18;100.00;67318.16;4977703;28;20090;-84
2022/08/25 03:31:21;;;;;;;;;;;21.30;90.50;;;-147.18;100.00;67318.16;4983635;28;20317;-84
2022/08/25 03:33:48;;;;;;;;;;;21.30;90.40;;;-147.18;100.00;67318.16;4986713;28;19929;-84
2022/08/25 03:36:15;;;;;;;;;;;21.30;90.50;;;-147.18;100.00;67318.16;4993489;28;19953;-84
2022/08/25 03:38:44;;;;;;;;;;;21.20;90.50;;;-147.18;100.00;67318.16;4985610;28;19937;-84
2022/08/25 03:41:14;;;;;;;;;;;21.30;90.90;;;-147.18;100.00;67318.16;4991484;28;19922;-84
2022/08/25 03:43:41;;;;;;;;;;;21.20;90.70;;;-147.18;100.00;67318.16;4993464;28;19928;-84
2022/08/25 03:46:16;;;;;;;;;;;21.20;90.90;;;-147.18;100.00;67318.16;4992374;28;20379;-84
2022/08/25 03:48:43;;;;;;;;;;;21.20;90.80;;;-147.18;100.00;67318.16;4991627;28;19933;-84
2022/08/25 03:51:10;;;;;;;;;;;21.20;90.90;;;-147.18;100.00;67318.16;4991965;28;19936;-84
2022/08/25 03:53:37;;;;;;;;;;;21.20;91.00;;;-147.18;100.00;67318.16;4993403;28;19960;-84
2022/08/25 03:56:06;;;;;;;;;;;21.20;91.10;;;-147.18;100.00;67318.16;4992891;28;19921;-84
2022/08/25 03:58:33;;;;;;;;;;;21.10;91.10;;;-147.18;100.00;67318.16;4991201;28;19925;-84
2022/08/25 04:01:00;;;;;;;;;;;21.10;91.10;;;-147.18;100.00;67318.16;4991431;28;19928;-84
2022/08/25 04:03:27;;;;;;;;;;;21.10;91.30;;;-147.18;100.00;67318.16;4992875;28;19925;-84
2022/08/25 04:05:54;;;;;;;;;;;21.10;91.20;;;-147.18;100.00;67318.16;4992969;28;19921;-84
2022/08/25 04:08:21;;;;;;;;;;;21.00;91.30;;;-147.18;100.00;67318.16;4988408;28;19957;-84
2022/08/25 04:10:48;;;;;;;;;;;21.00;91.30;;;-147.18;100.00;67318.16;4988008;28;19933;-84
2022/08/25 04:13:17;;;;;;;;;;;21.00;91.40;;;-147.18;100.00;67318.16;4992383;28;20029;-85
2022/08/25 04:15:44;;;;;;;;;;;21.00;91.40;;;-147.18;100.00;67318.16;4992175;28;19929;-83
2022/08/25 04:18:12;;;;;;;;;;;20.90;91.60;;;-147.18;100.00;67318.16;4991786;28;20012;-83
2022/08/25 04:20:40;;;;;;;;;;;20.90;91.70;;;-147.18;100.00;67318.16;4981969;28;19933;-84
2022/08/25 04:23:07;;;;;;;;;;;20.90;91.50;;;-147.18;100.00;67318.16;4992352;28;19929;-78
2022/08/25 04:25:35;;;;;;;;;;;20.90;91.50;;;-147.18;100.00;67318.16;4978537;28;19922;-80
2022/08/25 04:28:02;;;;;;;;;;;20.90;91.50;;;-147.18;100.00;67318.16;4979184;28;19927;-80
2022/08/25 04:30:31;;;;;;;;;;;20.90;91.50;;;-147.18;100.00;67318.16;5006883;28;19922;-80
2022/08/25 04:32:58;;;;;;;;;;;20.80;91.70;;;-147.18;100.00;67318.16;4991219;28;20012;-80
2022/08/25 04:35:25;;;;;;;;;;;20.90;91.80;;;-147.18;100.00;67318.16;4990817;28;20302;-80
2022/08/25 04:37:52;;;;;;;;;;;20.90;91.90;;;-147.18;100.00;67318.16;4984319;28;19968;-80
2022/08/25 04:40:19;;;;;;;;;;;20.80;92.10;;;-147.18;100.00;67318.16;4987725;28;19933;-80
2022/08/25 04:42:46;;;;;;;;;;;20.80;91.90;;;-147.18;100.00;67318.16;4987753;28;20028;-80
2022/08/25 04:45:13;;;;;;;;;;;20.80;92.40;;;-147.18;100.00;67318.16;4990890;28;19968;-80
2022/08/25 04:47:41;;;;;;;;;;;20.80;92.50;;;-147.18;100.00;67318.16;4991989;28;19922;-80
2022/08/25 04:50:09;;;;;;;;;;;20.70;92.50;;;-147.18;100.00;67318.16;4991052;28;20079;-80
2022/08/25 04:52:36;;;;;;;;;;;20.70;92.60;;;-147.18;100.00;67318.16;4987611;28;19945;-80
2022/08/25 04:55:04;;;;;;;;;;;20.70;92.60;;;-147.18;100.00;67318.16;4984294;28;19925;-80
2022/08/25 04:57:31;;;;;;;;;;;20.70;92.80;;;-147.18;100.00;67318.16;4990189;28;20489;-80
2022/08/25 04:59:58;;;;;;;;;;;20.70;92.70;;;-147.18;100.00;67318.16;4990910;28;19976;-80
2022/08/25 05:02:25;;;;;;;;;;;20.70;93.00;;;-147.18;100.00;67318.16;5002256;28;19933;-79
2022/08/25 05:04:54;;;;;;;;;;;20.70;93.30;;;-147.18;100.00;67318.16;4975451;28;19922;-83
2022/08/25 05:07:22;;;;;;;;;;;20.70;93.10;;;-147.18;100.00;67318.16;4987524;28;19925;-83
2022/08/25 05:09:49;;;;;;;;;;;20.70;93.20;;;-147.18;100.00;67318.16;4987390;28;20044;-82
2022/08/25 05:12:16;;;;;;;;;;;20.70;93.50;;;-147.18;100.00;67318.16;4981616;28;19953;-82
2022/08/25 05:14:43;;;;;;;;;;;20.70;93.60;;;-147.18;100.00;67318.16;4981749;28;19984;-82
2022/08/25 05:17:10;;;;;;;;;;;20.70;93.80;;;-147.18;100.00;67318.16;4990556;28;20000;-82
2022/08/25 05:19:37;;;;;;;;;;;20.70;93.90;;;-147.18;100.00;67318.16;4989266;28;20019;-83
2022/08/25 05:22:05;;;;;;;;;;;20.70;94.10;;;-147.18;100.00;67318.16;4985605;28;19926;-81
2022/08/25 05:24:32;;;;;;;;;;;20.80;94.10;;;-147.18;100.00;67318.16;4984773;28;20461;-86
2022/08/25 05:26:59;;;;;;;;;;;20.80;94.10;;;-147.18;100.00;67318.16;4983202;28;19929;-86
2022/08/25 05:29:26;;;;;;;;;;;20.80;94.10;;;-147.18;100.00;67318.16;4991395;28;19961;-87
2022/08/25 05:31:53;;;;;;;;;;;20.80;94.30;;;-147.18;100.00;67318.16;4979346;28;19952;-87
2022/08/25 05:34:21;;;;;;;;;;;20.90;94.70;;;-147.18;100.00;67318.16;4987701;28;20371;-86
2022/08/25 05:36:48;;;;;;;;;;;20.90;94.80;;;-147.18;100.00;67318.16;4978371;28;20016;-89
2022/08/25 05:39:16;;;;;;;;;;;20.90;95.00;;;-147.18;100.00;67318.16;4973255;28;20762;-88
2022/08/25 05:41:44;;;;;;;;;;;20.90;95.20;;;-147.18;100.00;67318.16;4978452;28;19976;-88
2022/08/25 05:44:11;;;;;;;;;;;20.90;95.60;;;-147.18;100.00;67318.16;4982967;28;19929;-88
2022/08/25 05:46:38;;;;;;;;;;;20.90;95.60;;;-147.18;100.00;67318.16;4986538;28;19922;-89
2022/08/25 05:49:05;;;;;;;;;;;21.00;95.90;;;-147.18;100.00;67318.16;4989707;28;19971;-88
2022/08/25 05:51:32;;;;;;;;;;;21.10;96.10;;;-147.18;100.00;67318.16;4980696;28;20029;-89
2022/08/25 05:53:59;;;;;;;;;;;21.10;95.80;;;-147.18;100.00;67318.16;4987629;28;19932;-89
2022/08/25 05:56:28;;;;;;;;;;;21.20;95.90;;;-147.18;100.00;67318.16;4989790;28;19957;-88
2022/08/25 05:58:55;;;;;;;;;;;21.20;95.40;;;-147.18;100.00;67318.16;4985033;28;19926;-90
2022/08/25 06:04:09;;;;;;;;;;;21.30;94.60;;;-147.18;100.00;67318.16;4990839;28;19922;-89
2022/08/25 06:06:36;;;;;;;;;;;21.40;94.20;;;-147.18;100.00;67318.16;4987014;28;19940;-90
2022/08/25 06:09:07;;;;;;;;;;;21.40;94.10;;;-147.18;100.00;67318.16;4989277;28;19949;-87
2022/08/25 06:11:37;;;;;;;;;;;21.50;94.00;;;-147.18;100.00;67318.16;4980752;28;19929;-87
2022/08/25 06:14:04;;;;;;;;;;;21.60;93.50;;;-147.18;100.00;67318.16;4982368;28;19929;-87
2022/08/25 06:16:31;;;;;;;;;;;21.60;94.20;;;-147.18;100.00;67318.16;4986009;28;19922;-88
2022/08/25 06:18:59;;;;;;;;;;;21.60;93.70;;;-147.18;100.00;67318.16;4987510;28;19944;-88
2022/08/25 06:21:26;;;;;;;;;;;21.70;93.30;;;-147.18;100.00;67318.16;4990007;28;19926;-87
2022/08/25 06:23:54;;;;;;;;;;;21.70;93.50;;;-147.18;100.00;67318.16;4989390;28;20008;-87
2022/08/25 06:26:21;;;;;;;;;;;21.80;93.00;;;-147.18;100.00;67318.16;4987155;28;20325;-88
2022/08/25 06:28:49;;;;;;;;;;;21.80;92.90;;;-147.18;100.00;67318.16;4978142;28;19969;-88
2022/08/25 06:31:17;;;;;;;;;;;21.90;93.20;;;-147.18;100.00;67318.16;4988553;28;19988;-89
2022/08/25 06:33:45;;;;;;;;;;;21.90;93.10;;;-147.18;100.00;67318.16;4999048;23;19925;-80
2022/08/25 06:36:12;;;;;;;;;;;22.00;92.80;;;-147.18;100.00;67318.16;4994053;28;19928;-80
2022/08/25 06:38:39;;;;;;;;;;;22.00;92.50;;;-147.18;100.00;67318.16;4999421;28;20411;-80
2022/08/25 06:41:07;;;;;;;;;;;22.10;92.40;;;-147.18;100.00;67318.16;5002657;28;19922;-80
2022/08/25 06:43:34;;;;;;;;;;;22.10;92.60;;;-147.18;100.00;67318.16;4992738;28;20017;-80
2022/08/25 06:46:10;;;;;;;;;;;22.30;92.20;;;-147.18;100.00;67318.16;4992733;28;20453;-80
2022/08/25 06:48:37;;;;;;;;;;;22.30;92.70;;;-147.18;100.00;67318.16;4989424;28;19921;-80
2022/08/25 06:51:06;;;;;;;;;;;22.30;92.20;;;-147.18;100.00;67318.16;4991312;28;19921;-80
2022/08/25 06:53:33;;;;;;;;;;;22.40;92.00;;;-147.18;100.00;67318.16;4993267;28;20036;-80
2022/08/25 06:56:01;;;;;;;;;;;22.50;91.70;;;-147.18;100.00;67318.16;4990170;28;19934;-80
2022/08/25 06:58:28;;;;;;;;;;;22.60;91.40;;;-147.18;100.00;67318.16;4992944;28;19988;-80
2022/08/25 07:00:55;;;;;;;;;;;22.60;91.30;;;-147.18;100.00;67318.16;4992913;28;19964;-80
2022/08/25 07:03:24;;;;;;;;;;;22.70;91.10;;;-147.18;100.00;67318.16;4993873;28;19921;-80
2022/08/25 07:05:52;;;;;;;;;;;22.80;92.00;;;-147.18;100.00;67318.16;4991745;28;19930;-80
2022/08/25 07:08:20;;;;;;;;;;;22.90;91.90;;;-147.18;100.00;67318.16;4986604;28;20018;-81
2022/08/25 07:10:47;;;;;;;;;;;22.90;91.10;;;-147.18;100.00;67318.16;4992788;28;20008;-80
2022/08/25 07:13:14;;;;;;;;;;;23.00;90.90;;;-147.18;100.00;67318.16;4992208;28;20020;-79
2022/08/25 07:15:42;;;;;;;;;;;23.00;90.00;;;-147.18;100.00;67318.16;4991308;28;19931;-80
2022/08/25 07:18:10;;;;;;;;;;;23.00;89.30;;;-147.18;100.00;67318.16;4990760;28;19928;-80
2022/08/25 07:20:38;;;;;;;;;;;23.20;89.60;;;-147.18;100.00;67318.16;4985048;28;19922;-79
2022/08/25 07:23:06;;;;;;;;;;;23.20;89.30;;;-147.18;100.00;67318.16;4989243;28;19926;-80
2022/08/25 07:25:34;;;;;;;;;;;23.20;89.00;;;-147.18;100.00;67318.16;4992217;28;19922;-80
2022/08/25 07:28:01;;;;;;;;;;;23.30;89.40;;;-147.18;100.00;67318.16;4993582;28;19951;-80
2022/08/25 07:30:28;;;;;;;;;;;23.40;89.50;;;-147.18;100.00;67318.16;4990270;28;20313;-80
2022/08/25 07:32:55;;;;;;;;;;;23.50;90.30;;;-147.18;100.00;67318.16;4989899;28;19926;-80
2022/08/25 07:35:24;;;;;;;;;;;23.50;92.20;;;-147.18;100.00;67318.16;4991831;28;20267;-80
2022/08/25 07:37:55;;;;;;;;;;;23.60;90.30;;;-147.18;100.00;67318.16;4992378;28;19937;-80
2022/08/25 07:40:25;;;;;;;;;;;23.60;89.20;;;-147.18;100.00;67318.16;4990327;28;19930;-80
2022/08/25 07:42:53;;;;;;;;;;;23.70;90.20;;;-147.18;100.00;67318.16;4985855;28;19922;-79
2022/08/25 07:45:28;;;;;;;;;;;23.80;89.80;;;-147.18;100.00;67318.16;4985698;28;20020;-80
2022/08/25 07:47:55;;;;;;;;;;;23.90;89.50;;;-147.18;100.00;67318.16;4990864;28;19922;-80
2022/08/25 07:50:22;;;;;;;;;;;23.90;89.10;;;-147.18;100.00;67318.16;4992156;28;19933;-80
2022/08/25 07:52:50;;;;;;;;;;;24.00;87.90;;;-147.18;100.00;67318.16;4989976;28;20352;-80
2022/08/25 07:55:18;;;;;;;;;;;24.10;87.70;;;-147.18;100.00;67318.16;4991754;28;19922;-80
2022/08/25 07:57:46;;;;;;;;;;;24.10;87.40;;;-147.18;100.00;67318.16;4992608;28;19930;-80
2022/08/25 08:00:15;;;;;;;;;;;24.20;87.50;;;-147.18;100.00;67318.16;4992233;28;19949;-80
2022/08/25 08:02:43;;;;;;;;;;;24.20;88.90;;;-147.18;100.00;67318.16;4990921;28;19922;-79
2022/08/25 08:05:11;;;;;;;;;;;24.40;89.90;;;-147.18;100.00;67318.16;4991270;28;20025;-80
2022/08/25 08:07:39;;;;;;;;;;;24.40;87.40;;;-147.18;100.00;67318.16;4989632;28;19969;-80
2022/08/25 08:10:08;;;;;;;;;;;24.50;86.40;;;-147.18;100.00;67318.16;4981279;28;19926;-78
2022/08/25 08:12:41;;;;;;;;;;;24.60;88.00;;;-147.18;100.00;67318.16;4988024;28;19922;-81
2022/08/25 08:15:09;;;;;;;;;;;24.60;86.20;;;-147.18;100.00;67318.16;4990146;28;19943;-81
2022/08/25 08:17:36;;;;;;;;;;;24.70;87.30;;;-147.18;100.00;67318.16;4990068;28;20036;-81
2022/08/25 08:20:05;;;;;;;;;;;24.80;88.80;;;-147.18;100.00;67318.16;4992571;28;19922;-91
2022/08/25 08:22:32;;;;;;;;;;;24.80;86.50;;;-147.18;100.00;67318.16;4992201;28;20016;-82
2022/08/25 08:25:00;;;;;;;;;;;24.90;86.40;;;-147.18;100.00;67318.16;4989664;28;19928;-81
2022/08/25 08:27:27;;;;;;;;;;;24.90;84.70;;;-147.18;100.00;67318.16;4984313;28;20436;-85
2022/08/25 08:29:56;;;;;;;;;;;24.80;83.90;;;-147.18;100.00;67318.16;4984404;28;19965;-85
2022/08/25 08:32:23;;;;;;;;;;;24.90;84.30;;;-147.18;100.00;67318.16;4972889;28;19985;-86
2022/08/25 08:34:50;;;;;;;;;;;24.90;84.20;;;-147.18;100.00;67318.16;4974153;28;19922;-86
2022/08/25 08:37:17;;;;;;;;;;;24.90;83.80;;;-147.18;100.00;67318.16;4984915;28;19932;-86
2022/08/25 08:39:44;;;;;;;;;;;25.00;84.50;;;-147.18;100.00;67318.16;4992388;28;20353;-85
2022/08/25 08:42:18;;;;;;;;;;;25.00;84.10;;;-147.18;100.00;67318.16;4990102;28;20012;-86
2022/08/25 08:45:01;;;;;;;;;;;25.10;84.60;;;-147.18;100.00;67318.16;4991237;28;19929;-84
2022/08/25 08:47:37;;;;;;;;;;;25.20;85.40;;;-147.18;100.00;67318.16;4984970;28;19929;-83
2022/08/25 08:50:10;;;;;;;;;;;25.20;83.80;;;-147.18;100.00;67318.16;4991478;28;19957;-84
2022/08/25 08:52:43;;;;;;;;;;;25.30;84.20;;;-147.18;100.00;67318.16;4991696;28;20027;-85
2022/08/25 08:55:15;;;;;;;;;;;25.30;82.30;;;-147.18;100.00;67318.16;4991529;28;20302;-84
2022/08/25 08:57:47;;;;;;;;;;;25.30;82.00;;;-147.18;100.00;67318.16;4990600;28;19957;-83
2022/08/25 09:00:17;;;;;;;;;;;25.30;82.30;;;-147.18;100.00;67318.16;4983434;28;20371;-83
2022/08/25 09:02:52;;;;;;;;;;;25.30;82.40;;;-147.18;100.00;67318.16;4981370;28;19922;-83
2022/08/25 09:05:23;;;;;;;;;;;25.40;83.90;;;-147.18;100.00;67318.16;4985811;28;19925;-83
2022/08/25 09:07:53;;;;;;;;;;;25.40;83.10;;;-147.18;100.00;67318.16;4985879;28;19926;-83
2022/08/25 09:10:23;;;;;;;;;;;25.50;83.90;;;-147.18;100.00;67318.16;4972270;28;20036;-83
2022/08/25 09:12:58;;;;;;;;;;;25.60;84.80;;;-147.18;100.00;67318.16;4979855;28;19980;-83
2022/08/25 09:18:23;;;;;;;;;;;25.70;81.30;;;-147.18;100.00;67318.16;4982868;28;19929;-83
2022/08/25 09:20:57;;;;;;;;;;;25.70;81.40;;;-147.18;100.00;67318.16;4981472;28;20020;-83
2022/08/25 09:23:33;;;;;;;;;;;25.70;81.50;;;-147.18;100.00;67318.16;4991941;28;19922;-83
2022/08/25 09:26:10;;;;;;;;;;;25.80;81.90;;;-147.18;100.00;67318.16;4991301;28;20020;-83
2022/08/25 09:28:41;;;;;;;;;;;25.70;81.00;;;-147.18;100.00;67318.16;4987861;28;19926;-83
2022/08/25 09:31:15;;;;;;;;;;;25.80;80.80;;;-147.18;100.00;67318.16;4988015;28;19929;-83
2022/08/25 09:33:42;;;;;;;;;;;25.80;83.10;;;-147.18;100.00;67318.16;4983088;28;20072;-83
2022/08/25 09:36:09;;;;;;;;;;;25.90;80.70;;;-147.18;100.00;67318.16;4986250;28;19926;-83
2022/08/25 09:38:37;;;;;;;;;;;25.90;80.70;;;-147.18;100.00;67318.16;4981354;28;19925;-83
2022/08/25 09:41:04;;;;;;;;;;;25.90;80.60;;;-147.18;100.00;67318.16;4987823;28;19956;-83
2022/08/25 09:43:34;;;;;;;;;;;25.90;81.10;;;-147.18;100.00;67318.16;4989033;28;19921;-83
2022/08/25 09:46:03;;;;;;;;;;;25.90;80.50;;;-147.18;100.00;67318.16;4988011;28;20298;-83
2022/08/25 09:48:36;;;;;;;;;;;26.00;80.70;;;-147.18;100.00;67318.16;4987780;28;19922;-83
2022/08/25 09:51:16;;;;;;;;;;;26.00;81.00;;;-147.18;100.00;67318.16;4985489;28;19926;-83
2022/08/25 09:53:48;;;;;;;;;;;26.00;80.10;;;-147.18;100.00;67318.16;4977268;28;19945;-83
2022/08/25 09:56:16;;;;;;;;;;;26.10;80.30;;;-147.18;100.00;67318.16;4990563;28;19930;-83
2022/08/25 09:58:43;;;;;;;;;;;26.10;80.20;;;-147.18;100.00;67318.16;4988704;28;19921;-83
2022/08/25 10:01:16;;;;;;;;;;;26.00;79.90;;;-147.18;100.00;67318.16;4976856;28;19930;-83
2022/08/25 10:04:06;;;;;;;;;;;26.20;80.90;;;-147.18;100.00;67318.16;4985224;28;20012;-83
2022/08/25 10:06:44;;;;;;;;;;;26.20;80.80;;;-147.18;100.00;67318.16;4986068;28;20020;-83
2022/08/25 10:09:20;;;;;;;;;;;26.30;81.00;;;-147.18;100.00;67318.16;4977978;28;20030;-84
2022/08/25 10:11:51;;;;;;;;;;;26.40;79.70;;;-147.18;100.00;67318.16;4979916;28;19922;-82
2022/08/25 10:14:26;;;;;;;;;;;26.40;80.00;;;-147.18;100.00;67318.16;4985867;28;19932;-84
2022/08/25 10:17:11;;;;;;;;;;;26.30;79.80;;;-147.18;100.00;67318.16;4978836;28;19937;-83
2022/08/25 10:19:40;;;;;;;;;;;26.40;79.20;;;-147.18;100.00;67318.16;5000738;28;19932;-78
2022/08/25 10:22:09;;;;;;;;;;;26.40;80.60;;;-147.18;100.00;67318.16;4980888;28;19926;-78
2022/08/25 10:24:37;;;;;;;;;;;26.40;79.20;;;-147.18;100.00;67318.16;4985212;28;19922;-78
2022/08/25 10:27:14;;;;;;;;;;;26.40;79.30;;;-147.18;100.00;67318.16;4983953;28;19933;-78
2022/08/25 10:30:07;;;;;;;;;;;26.40;78.30;;;-147.18;100.00;67318.16;4983172;28;20370;-77
2022/08/25 10:32:48;;;;;;;;;;;26.40;78.00;;;-147.18;100.00;67318.16;4976842;28;19926;-77
2022/08/25 10:35:19;;;;;;;;;;;26.40;78.60;;;-147.18;100.00;67318.16;4984551;28;19929;-77
2022/08/25 10:37:54;;;;;;;;;;;26.40;78.30;;;-147.18;100.00;67318.16;4983178;28;19940;-77
2022/08/25 10:40:24;;;;;;;;;;;26.40;78.00;;;-147.18;100.00;67318.16;4972909;28;20352;-77
2022/08/25 10:43:02;;;;;;;;;;;26.50;77.70;;;-147.18;100.00;67318.16;4978965;28;20022;-77
2022/08/25 10:45:44;;;;;;;;;;;26.40;78.90;;;-147.18;100.00;67318.16;4981317;28;19926;-76
2022/08/25 10:48:34;;;;;;;;;;;26.50;78.10;;;-147.18;100.00;67318.16;5001935;28;19934;-77
2022/08/25 10:51:12;;;;;;;;;;;26.50;77.80;;;-147.18;100.00;67318.16;4990011;28;19960;-77
2022/08/25 10:53:51;;;;;;;;;;;26.60;77.60;;;-147.18;100.00;67318.16;4992170;28;19953;-76
2022/08/25 10:56:21;;;;;;;;;;;26.60;78.30;;;-147.18;100.00;67318.16;4973837;28;20727;-76
2022/08/25 10:59:21;;;;;;;;;;;26.60;76.60;;;-147.18;100.00;67318.16;4980489;28;19925;-76
2022/08/25 11:01:57;;;;;;;;;;;26.60;75.90;;;-147.18;100.00;67318.16;4982330;28;19965;-76
2022/08/25 11:04:28;;;;;;;;;;;26.60;76.10;;;-147.18;100.00;67318.16;4980227;28;19930;-77
2022/08/25 11:07:00;;;;;;;;;;;26.50;76.00;;;-147.18;100.00;67318.16;4988668;28;19922;-76
2022/08/25 11:09:30;;;;;;;;;;;26.50;76.10;;;-147.18;100.00;67318.16;4987006;28;20016;-77
2022/08/25 11:12:00;;;;;;;;;;;26.60;77.40;;;-147.18;100.00;67318.16;4987588;28;20009;-77